首页
METAR-TAF:

METAR-TAF

机场 :

松山機場

松山, 日本

纬度: 33-49N, 经度: 132-42E, 海拔: 4米

当前天气观测

该预报发布于45分钟前的07:00 UTC
风速4节,风向西转西北
温度 14°C
湿度 36%
气压 1020 hPa
能见度10公里或以上
少量云层高于4000英尺
多云

METAR: RJOM 040700Z 29004KT 9999 FEW040 BKN/// 14/M01 Q1020

时间: 16:45 (07:45 UTC)

预报

该预报发布于2小时和34分钟前的05:11 UTC
预报有效从04日的 06点(UTC)到 05日的 12点(UTC)
风速6节,风向西转西南
能见度10公里或以上
少量云层高于3500英尺
成为
从 04日的 09点(UTC)到 04日的 11点(UTC)
风速5节,风向东转东南
短暂存在
从 04日的 21点(UTC)到 05日的 00点(UTC)
能見度: 4000
少量云层高于300英尺
多云层高于800英尺
多云层高于1500英尺
雨, 轻雾
成为
从 05日的 00点(UTC)到 05日的 03点(UTC)
风速13节,风向北转东北

TAF: RJOM 040511Z 0406/0512 24006KT 9999 FEW035 BECMG 0409/0411 12005KT TEMPO 0421/0500 4000 RA BR FEW003 BKN008 BKN015 BECMG 0500/0503 02013KT

超过4000个机场的气象观测和天气预报(METAR&TAF报告)。

可查询的气象台以黄色和红色小点在地图上表示。

将鼠标移到小点上方,可查看气象台名称。

然后点击查看天气观测和预报。

如需切换地图:点击带黑十字的绿色按钮放大地图;点击带横线的绿色按钮缩小地图;或者点击绿色箭头查看邻近地区的地图。


METAR-TAF: